createdAt,value
2018-06-29T00:00:02.670Z,74.55
2018-06-29T00:02:31.284Z,74.95
2018-06-29T00:05:00.732Z,74.38
2018-06-29T00:07:29.458Z,74.38
2018-06-29T00:09:58.834Z,73.92
2018-06-29T00:12:27.523Z,73.78
2018-06-29T00:14:56.913Z,73.68
2018-06-29T00:17:25.567Z,73.82
2018-06-29T00:19:54.584Z,74.13
2018-06-29T00:22:23.506Z,74.39
2018-06-29T00:24:52.191Z,74.57
2018-06-29T00:27:20.851Z,74.27
2018-06-29T00:29:49.479Z,73.91
2018-06-29T00:32:18.295Z,73.18
2018-06-29T00:34:46.959Z,73.58
2018-06-29T00:37:15.725Z,74.57
2018-06-29T00:39:44.570Z,74.17
2018-06-29T00:42:13.859Z,74.05
2018-06-29T00:44:43.040Z,73.06
2018-06-29T00:47:11.918Z,72.75
2018-06-29T00:49:40.636Z,72.28
2018-06-29T00:52:09.261Z,72.27
2018-06-29T00:54:37.934Z,72.62
2018-06-29T00:57:07.036Z,72.72
2018-06-29T00:59:36.037Z,72.65
2018-06-29T01:02:04.743Z,73.37
2018-06-29T01:04:33.399Z,73.17
2018-06-29T01:07:02.173Z,73.51
2018-06-29T01:09:30.854Z,73.57
2018-06-29T01:11:59.751Z,73.82
2018-06-29T01:14:29.108Z,74.45
2018-06-29T01:16:57.878Z,74.72
2018-06-29T01:19:26.564Z,74.95
2018-06-29T01:21:55.384Z,74.96
2018-06-29T01:24:24.692Z,74.63
2018-06-29T01:26:54.042Z,75.40
2018-06-29T01:29:22.700Z,75.57
2018-06-29T01:31:51.353Z,75.78
2018-06-29T01:34:20.800Z,75.81
2018-06-29T01:36:49.492Z,75.02
2018-06-29T01:39:19.208Z,74.75
2018-06-29T01:41:47.835Z,74.67
2018-06-29T01:44:16.524Z,74.81
2018-06-29T01:46:45.375Z,74.56
2018-06-29T01:49:14.114Z,74.27
2018-06-29T01:51:42.811Z,74.37
2018-06-29T01:54:11.392Z,74.17
2018-06-29T01:56:40.247Z,74.60
2018-06-29T01:59:08.991Z,74.29
2018-06-29T02:01:37.705Z,74.21
2018-06-29T02:04:06.691Z,74.54
2018-06-29T02:06:35.576Z,74.25
2018-06-29T02:09:06.536Z,74.42
2018-06-29T02:11:35.136Z,74.24
2018-06-29T02:14:04.348Z,74.45
2018-06-29T02:16:33.203Z,74.23
2018-06-29T02:19:01.791Z,74.21
2018-06-29T02:21:30.458Z,74.06
2018-06-29T02:23:59.070Z,74.42
2018-06-29T02:26:27.722Z,73.83
2018-06-29T02:28:57.178Z,73.58
2018-06-29T02:31:25.835Z,73.89
2018-06-29T02:33:54.398Z,74.35
2018-06-29T02:36:23.803Z,74.53
2018-06-29T02:38:53.110Z,74.70
2018-06-29T02:41:21.751Z,74.64
2018-06-29T02:43:50.635Z,74.81
2018-06-29T02:46:19.473Z,74.50
2018-06-29T02:48:48.433Z,74.45
2018-06-29T02:51:17.098Z,74.17
2018-06-29T02:53:46.302Z,73.81
2018-06-29T02:56:15.294Z,74.18
2018-06-29T02:58:44.027Z,74.41
2018-06-29T03:01:13.454Z,74.73
2018-06-29T03:03:42.149Z,74.75
2018-06-29T03:06:10.983Z,74.95
2018-06-29T03:08:39.830Z,74.43
2018-06-29T03:11:08.634Z,74.39
2018-06-29T03:13:37.250Z,74.41
2018-06-29T03:16:05.973Z,74.34
2018-06-29T03:18:35.124Z,74.18
2018-06-29T03:21:04.932Z,74.30
2018-06-29T03:23:33.980Z,74.19
2018-06-29T03:26:02.774Z,74.08
2018-06-29T03:28:31.511Z,74.18
2018-06-29T03:31:00.201Z,74.09
2018-06-29T03:33:29.630Z,74.53
2018-06-29T03:35:58.264Z,73.85
2018-06-29T03:38:26.978Z,73.78
2018-06-29T03:40:55.749Z,73.53
2018-06-29T03:43:24.495Z,73.69
2018-06-29T03:45:53.728Z,74.02
2018-06-29T03:48:22.395Z,75.20
2018-06-29T03:50:51.371Z,75.89
2018-06-29T03:53:20.033Z,75.72
2018-06-29T03:55:48.697Z,75.60
2018-06-29T03:58:17.407Z,75.15
2018-06-29T04:00:46.101Z,75.32
2018-06-29T04:03:15.000Z,75.14
2018-06-29T04:05:43.769Z,74.83
2018-06-29T04:08:12.560Z,74.28
2018-06-29T04:10:41.362Z,74.24
2018-06-29T04:13:10.767Z,74.31
2018-06-29T04:15:39.380Z,74.72
2018-06-29T04:18:08.177Z,74.18
2018-06-29T04:20:36.853Z,73.51
2018-06-29T04:23:06.068Z,73.92
2018-06-29T04:25:34.833Z,73.51
2018-06-29T04:28:03.579Z,73.89
2018-06-29T04:30:32.476Z,73.45
2018-06-29T04:33:01.160Z,73.74
2018-06-29T04:35:29.878Z,73.65
2018-06-29T04:37:59.312Z,73.45
2018-06-29T04:40:32.037Z,73.65
2018-06-29T04:43:00.964Z,73.49
2018-06-29T04:45:29.675Z,73.74
2018-06-29T04:47:58.740Z,73.89
2018-06-29T04:50:27.562Z,73.48
2018-06-29T04:52:56.632Z,73.90
2018-06-29T04:55:25.251Z,74.33
2018-06-29T04:57:53.953Z,73.51
2018-06-29T05:00:24.311Z,73.77
2018-06-29T05:02:53.056Z,74.04
2018-06-29T05:05:22.297Z,73.97
2018-06-29T05:07:50.956Z,73.73
2018-06-29T05:10:20.320Z,74.17
2018-06-29T05:12:48.992Z,73.62
2018-06-29T05:15:18.703Z,73.52
2018-06-29T05:17:47.508Z,73.83
2018-06-29T05:20:16.462Z,73.78
2018-06-29T05:22:45.163Z,73.28
2018-06-29T05:25:13.782Z,73.08
2018-06-29T05:27:42.426Z,73.46
2018-06-29T05:30:11.580Z,73.48
2018-06-29T05:32:40.296Z,72.77
2018-06-29T05:35:09.010Z,72.93
2018-06-29T05:37:37.697Z,73.00
2018-06-29T05:40:06.594Z,72.42
2018-06-29T05:42:35.483Z,72.01
2018-06-29T05:45:04.174Z,71.85
2018-06-29T05:47:32.865Z,71.23
2018-06-29T05:50:01.601Z,70.79
2018-06-29T05:52:30.987Z,70.92
2018-06-29T05:54:59.736Z,70.62
2018-06-29T05:57:28.908Z,71.55
2018-06-29T05:59:58.579Z,70.63
2018-06-29T06:02:28.092Z,70.55
2018-06-29T06:04:56.801Z,70.59
2018-06-29T06:07:25.443Z,70.34
2018-06-29T06:09:54.264Z,70.07
2018-06-29T06:12:23.070Z,70.27
2018-06-29T06:14:51.759Z,70.40
2018-06-29T06:17:21.039Z,70.25
2018-06-29T06:20:00.864Z,69.74
2018-06-29T06:22:30.705Z,70.12
2018-06-29T06:25:00.264Z,70.19
2018-06-29T06:27:29.359Z,70.17
2018-06-29T06:29:58.880Z,70.89
2018-06-29T06:32:28.101Z,70.96
2018-06-29T06:34:56.851Z,71.28
2018-06-29T06:37:25.547Z,70.80
2018-06-29T06:39:55.313Z,70.47
2018-06-29T06:42:24.168Z,71.31
2018-06-29T06:44:52.827Z,71.01
2018-06-29T06:47:21.596Z,70.56
2018-06-29T06:49:51.382Z,69.76
2018-06-29T06:52:20.032Z,70.03
2018-06-29T06:54:48.773Z,69.85
2018-06-29T06:57:17.567Z,69.18
2018-06-29T06:59:46.537Z,68.73
2018-06-29T07:02:15.526Z,68.52
2018-06-29T07:04:45.906Z,68.07
2018-06-29T07:07:14.623Z,67.54
2018-06-29T07:09:43.769Z,66.84
2018-06-29T07:12:12.465Z,66.10
2018-06-29T07:14:41.127Z,65.17
2018-06-29T07:17:10.571Z,64.97
2018-06-29T07:19:39.270Z,64.33
2018-06-29T07:22:08.428Z,63.97
2018-06-29T07:24:38.169Z,62.81
2018-06-29T07:27:07.458Z,63.09
2018-06-29T07:29:37.197Z,62.54
2018-06-29T07:32:06.693Z,62.20
2018-06-29T07:34:36.257Z,60.43
2018-06-29T07:37:05.067Z,60.37
2018-06-29T07:39:34.676Z,60.11
2018-06-29T07:42:04.197Z,60.84
2018-06-29T07:44:33.316Z,59.99
2018-06-29T07:47:02.062Z,61.45
2018-06-29T07:49:31.626Z,60.09
2018-06-29T07:52:00.696Z,60.18
2018-06-29T07:54:29.820Z,59.62
2018-06-29T07:56:59.965Z,59.59
2018-06-29T07:59:28.719Z,59.60
2018-06-29T08:02:04.389Z,59.59
2018-06-29T08:04:33.694Z,59.35
2018-06-29T08:07:02.540Z,60.60
2018-06-29T08:09:31.264Z,60.50
2018-06-29T08:12:00.474Z,60.20
2018-06-29T08:14:30.487Z,60.45
2018-06-29T08:16:59.456Z,61.62
2018-06-29T08:19:28.234Z,61.86
2018-06-29T08:21:56.965Z,62.04
2018-06-29T08:24:25.897Z,61.80
2018-06-29T08:26:54.981Z,62.07
2018-06-29T08:29:24.214Z,62.04
2018-06-29T08:31:55.260Z,61.96
2018-06-29T08:34:24.436Z,62.82
2018-06-29T08:36:53.130Z,62.07
2018-06-29T08:39:21.831Z,61.95
2018-06-29T08:41:50.765Z,61.56
2018-06-29T08:44:19.638Z,61.90
2018-06-29T08:46:49.181Z,60.50
2018-06-29T08:49:17.905Z,60.60
2018-06-29T08:51:46.674Z,61.02
2018-06-29T08:54:15.871Z,60.98
2018-06-29T08:56:44.701Z,60.95
2018-06-29T08:59:13.771Z,60.10
2018-06-29T09:01:42.919Z,60.86
2018-06-29T09:04:12.127Z,60.70
2018-06-29T09:06:41.134Z,59.82
2018-06-29T09:09:10.171Z,59.84
2018-06-29T09:11:39.288Z,59.54
2018-06-29T09:14:08.058Z,59.36
2018-06-29T09:16:37.139Z,58.99
2018-06-29T09:19:06.043Z,58.40
2018-06-29T09:21:34.754Z,59.63
2018-06-29T09:24:03.690Z,58.73
2018-06-29T09:26:32.414Z,57.92
2018-06-29T09:29:01.815Z,56.00
2018-06-29T09:31:31.204Z,56.58
2018-06-29T09:33:59.912Z,58.13
2018-06-29T09:36:30.036Z,58.19
2018-06-29T09:38:59.103Z,57.62
2018-06-29T09:41:29.349Z,57.20
2018-06-29T09:43:58.380Z,56.85
2018-06-29T09:46:27.603Z,56.61
2018-06-29T09:48:56.329Z,57.72
2018-06-29T09:51:25.448Z,57.03
2018-06-29T09:53:54.663Z,57.80
2018-06-29T09:56:23.562Z,56.56
2018-06-29T09:58:52.610Z,56.22
2018-06-29T10:01:21.485Z,55.02
2018-06-29T10:03:51.337Z,55.76
2018-06-29T10:06:20.311Z,55.30
2018-06-29T10:08:49.051Z,54.55
2018-06-29T10:11:17.861Z,54.97
2018-06-29T10:13:47.814Z,54.87
2018-06-29T10:16:16.490Z,53.77
2018-06-29T10:18:45.869Z,53.74
2018-06-29T10:21:15.514Z,54.79
2018-06-29T10:23:44.241Z,54.08
2018-06-29T10:26:13.029Z,53.57
2018-06-29T10:28:42.095Z,54.93
2018-06-29T10:31:11.591Z,53.60
2018-06-29T10:33:40.514Z,53.32
2018-06-29T10:36:09.163Z,52.11
2018-06-29T10:38:37.988Z,53.20
2018-06-29T10:41:06.976Z,52.99
2018-06-29T10:43:35.674Z,51.72
2018-06-29T10:46:04.412Z,52.61
2018-06-29T10:48:34.046Z,52.02
2018-06-29T10:51:03.270Z,52.01
2018-06-29T10:53:32.655Z,51.81
2018-06-29T10:56:02.333Z,51.17
2018-06-29T10:58:30.999Z,51.00
2018-06-29T11:01:00.677Z,50.99
2018-06-29T11:03:29.505Z,49.94
2018-06-29T11:05:58.171Z,49.15
2018-06-29T11:08:28.002Z,48.48
2018-06-29T11:10:56.693Z,48.20
2018-06-29T11:13:27.196Z,47.09
2018-06-29T11:15:56.331Z,48.29
2018-06-29T11:18:25.405Z,48.40
2018-06-29T11:20:54.103Z,48.95
2018-06-29T11:23:22.851Z,48.55
2018-06-29T11:25:53.525Z,49.88
2018-06-29T11:28:22.450Z,48.89
2018-06-29T11:30:51.216Z,48.79
2018-06-29T11:33:20.731Z,50.24
2018-06-29T11:35:50.362Z,51.01
2018-06-29T11:38:19.231Z,49.84
2018-06-29T11:40:48.750Z,50.07
2018-06-29T11:43:17.375Z,49.55
2018-06-29T11:45:46.141Z,50.44
2018-06-29T11:48:15.566Z,49.39
2018-06-29T11:50:44.241Z,49.86
2018-06-29T11:53:12.938Z,49.56
2018-06-29T11:55:41.624Z,48.70
2018-06-29T11:58:10.335Z,48.75
2018-06-29T12:00:39.538Z,49.04
2018-06-29T12:03:09.105Z,49.05
2018-06-29T12:05:37.862Z,48.19
2018-06-29T12:08:07.634Z,47.95
2018-06-29T12:10:36.844Z,47.84
2018-06-29T12:13:05.757Z,48.40
2018-06-29T12:15:34.917Z,47.16
2018-06-29T12:18:03.680Z,47.86
2018-06-29T12:20:33.281Z,47.17
2018-06-29T12:23:03.467Z,47.94
2018-06-29T12:25:33.315Z,47.21
2018-06-29T12:28:03.565Z,45.68
2018-06-29T12:30:32.276Z,47.39
2018-06-29T12:33:00.966Z,47.40
2018-06-29T12:35:29.633Z,45.98
2018-06-29T12:37:58.598Z,45.71
2018-06-29T12:40:29.906Z,47.32
2018-06-29T12:42:59.259Z,47.16
2018-06-29T12:45:28.912Z,47.25
2018-06-29T12:47:57.772Z,45.85
2018-06-29T12:50:26.841Z,45.07
2018-06-29T12:52:56.354Z,44.74
2018-06-29T12:55:25.184Z,44.23
2018-06-29T12:57:54.076Z,42.18
2018-06-29T13:00:22.971Z,42.97
2018-06-29T13:02:52.659Z,43.09
2018-06-29T13:05:21.404Z,41.63
2018-06-29T13:07:50.369Z,41.77
2018-06-29T13:10:19.111Z,42.05
2018-06-29T13:12:47.825Z,42.90
2018-06-29T13:15:16.519Z,44.80
2018-06-29T13:17:45.899Z,43.44
2018-06-29T13:20:14.893Z,41.62
2018-06-29T13:22:43.651Z,39.65
2018-06-29T13:25:12.734Z,37.31
2018-06-29T13:27:41.905Z,36.23
2018-06-29T13:30:10.624Z,33.06
2018-06-29T13:32:39.514Z,35.23
2018-06-29T13:35:08.806Z,33.34
2018-06-29T13:37:38.542Z,33.30
2018-06-29T13:40:07.360Z,33.91
2018-06-29T13:42:37.693Z,32.96
2018-06-29T13:45:06.358Z,33.23
2018-06-29T13:47:36.106Z,33.25
2018-06-29T13:50:06.020Z,32.25
2018-06-29T13:52:35.035Z,33.16
2018-06-29T13:55:05.251Z,33.74
2018-06-29T13:57:34.039Z,33.47
2018-06-29T14:00:03.719Z,32.51
2018-06-29T14:02:33.591Z,32.16
2018-06-29T14:05:02.313Z,31.34
2018-06-29T14:07:32.487Z,32.35
2018-06-29T14:10:01.594Z,32.54
2018-06-29T14:12:31.600Z,32.50
2018-06-29T14:15:01.335Z,32.64
2018-06-29T14:17:30.439Z,34.22
2018-06-29T14:19:59.440Z,34.10
2018-06-29T14:22:30.698Z,36.08
2018-06-29T14:25:00.165Z,35.97
2018-06-29T14:27:29.595Z,36.79
2018-06-29T14:29:58.369Z,37.02
2018-06-29T14:32:27.238Z,37.91
2018-06-29T14:34:56.192Z,38.36
2018-06-29T14:37:24.838Z,38.96
2018-06-29T14:39:53.615Z,38.66
2018-06-29T14:42:22.366Z,38.25
2018-06-29T14:44:51.449Z,38.52
2018-06-29T14:47:20.166Z,38.35
2018-06-29T14:49:48.848Z,36.63
2018-06-29T14:52:17.565Z,36.40
2018-06-29T14:54:47.047Z,36.51
2018-06-29T14:57:16.383Z,36.62
2018-06-29T14:59:45.897Z,37.64
2018-06-29T15:02:14.543Z,38.24
2018-06-29T15:04:43.204Z,37.86
2018-06-29T15:07:12.626Z,37.90
2018-06-29T15:09:42.371Z,36.94
2018-06-29T15:12:11.245Z,35.96
2018-06-29T15:14:40.147Z,37.69
2018-06-29T15:17:09.502Z,37.40
2018-06-29T15:19:38.172Z,36.24
2018-06-29T15:22:06.917Z,37.19
2018-06-29T15:24:35.892Z,38.19
2018-06-29T15:27:05.113Z,37.69
2018-06-29T15:29:33.819Z,37.38
2018-06-29T15:32:02.527Z,37.60
2018-06-29T15:34:31.890Z,36.73
2018-06-29T15:37:00.521Z,36.89
2018-06-29T15:39:29.730Z,38.03
2018-06-29T15:41:58.440Z,37.90
2018-06-29T15:44:27.106Z,37.98
2018-06-29T15:46:56.438Z,39.01
2018-06-29T15:49:25.159Z,39.52
2018-06-29T15:51:53.994Z,40.69
2018-06-29T15:54:23.416Z,40.46
2018-06-29T15:56:52.036Z,41.43
2018-06-29T15:59:20.861Z,41.24
2018-06-29T16:01:49.887Z,41.05
2018-06-29T16:04:18.613Z,40.39
2018-06-29T16:06:47.661Z,41.20
2018-06-29T16:09:16.355Z,41.54
2018-06-29T16:11:45.078Z,41.60
2018-06-29T16:14:13.804Z,42.36
2018-06-29T16:16:42.532Z,42.52
2018-06-29T16:19:11.231Z,42.88
2018-06-29T16:21:41.832Z,42.02
2018-06-29T16:24:10.550Z,42.68
2018-06-29T16:26:39.198Z,43.74
2018-06-29T16:29:07.935Z,43.48
2018-06-29T16:31:36.757Z,43.99
2018-06-29T16:34:06.072Z,43.99
2018-06-29T16:36:34.657Z,43.84
2018-06-29T16:39:05.084Z,43.39
2018-06-29T16:41:33.889Z,43.53
2018-06-29T16:44:02.473Z,43.69
2018-06-29T16:46:31.211Z,44.03
2018-06-29T16:48:59.900Z,43.60
2018-06-29T16:51:29.425Z,44.31
2018-06-29T16:53:58.707Z,43.65
2018-06-29T16:56:27.358Z,44.38
2018-06-29T16:58:56.010Z,45.06
2018-06-29T17:01:24.881Z,43.52
2018-06-29T17:03:53.652Z,44.25
2018-06-29T17:06:22.458Z,44.43
2018-06-29T17:08:51.160Z,45.34
2018-06-29T17:11:19.797Z,45.30
2018-06-29T17:13:48.736Z,45.64
2018-06-29T17:16:17.412Z,45.07
2018-06-29T17:18:47.279Z,45.01
2018-06-29T17:21:16.029Z,45.23
2018-06-29T17:23:44.838Z,44.62
2018-06-29T17:26:14.014Z,45.13
2018-06-29T17:28:42.956Z,45.29
2018-06-29T17:31:11.726Z,46.27
2018-06-29T17:33:40.687Z,46.43
2018-06-29T17:36:10.609Z,46.14
2018-06-29T17:38:40.778Z,46.76
2018-06-29T17:41:10.257Z,47.28
2018-06-29T17:43:39.009Z,46.65
2018-06-29T17:46:08.666Z,46.22
2018-06-29T17:48:37.583Z,47.10
2018-06-29T17:51:07.123Z,46.17
2018-06-29T17:53:36.010Z,45.78
2018-06-29T17:56:04.956Z,46.14
2018-06-29T17:58:34.288Z,46.59
2018-06-29T18:01:02.992Z,46.48
2018-06-29T18:03:32.428Z,46.39
2018-06-29T18:06:01.769Z,46.40
2018-06-29T18:08:30.452Z,46.64
2018-06-29T18:10:59.151Z,45.98
2018-06-29T18:13:27.905Z,46.19
2018-06-29T18:15:56.978Z,46.71
2018-06-29T18:18:25.810Z,46.12
2018-06-29T18:20:54.794Z,46.16
2018-06-29T18:23:23.810Z,46.08
2018-06-29T18:25:52.511Z,46.69
2018-06-29T18:28:21.877Z,46.34
2018-06-29T18:30:50.782Z,46.54
2018-06-29T18:33:19.443Z,46.80
2018-06-29T18:35:49.744Z,46.16
2018-06-29T18:38:18.696Z,46.68
2018-06-29T18:40:47.440Z,48.19
2018-06-29T18:43:16.154Z,47.55
2018-06-29T18:45:45.890Z,47.92
2018-06-29T18:48:14.859Z,47.89
2018-06-29T18:50:45.792Z,48.74
2018-06-29T18:53:16.382Z,48.02
2018-06-29T18:55:46.916Z,48.51
2018-06-29T18:58:15.765Z,48.31
2018-06-29T19:00:45.231Z,48.05
2018-06-29T19:03:14.820Z,48.25
2018-06-29T19:05:45.181Z,47.84
2018-06-29T19:08:13.879Z,48.41
2018-06-29T19:10:42.550Z,48.97
2018-06-29T19:13:11.345Z,48.66
2018-06-29T19:15:41.405Z,48.52
2018-06-29T19:18:13.997Z,49.60
2018-06-29T19:20:43.734Z,49.72
2018-06-29T19:23:12.389Z,50.16
2018-06-29T19:25:46.225Z,50.88
2018-06-29T19:28:17.919Z,50.79
2018-06-29T19:30:50.169Z,50.53
2018-06-29T19:33:20.850Z,51.18
2018-06-29T19:35:56.081Z,51.92
2018-06-29T19:38:31.314Z,52.10
2018-06-29T19:41:03.910Z,52.76
2018-06-29T19:43:34.645Z,52.97
2018-06-29T19:46:06.967Z,53.24
2018-06-29T19:48:38.984Z,53.58
2018-06-29T19:51:11.071Z,54.95
2018-06-29T19:53:41.414Z,55.01
2018-06-29T19:56:13.377Z,54.93
2018-06-29T19:58:44.485Z,54.00
2018-06-29T20:01:15.979Z,54.71
2018-06-29T20:03:48.090Z,54.84
2018-06-29T20:06:21.304Z,55.19
2018-06-29T20:08:53.604Z,55.32
2018-06-29T20:11:25.669Z,55.75
2018-06-29T20:13:56.600Z,56.37
2018-06-29T20:16:27.554Z,56.18
2018-06-29T20:19:02.335Z,56.94
2018-06-29T20:21:34.086Z,56.98
2018-06-29T20:24:05.731Z,57.43
2018-06-29T20:26:40.870Z,57.21
2018-06-29T20:29:12.955Z,57.07
2018-06-29T20:31:45.393Z,56.74
2018-06-29T20:34:16.696Z,56.29
2018-06-29T20:36:51.634Z,56.96
2018-06-29T20:39:25.488Z,57.52
2018-06-29T20:42:01.233Z,58.26
2018-06-29T20:44:32.297Z,57.78
2018-06-29T20:47:07.489Z,56.94
2018-06-29T20:49:38.717Z,57.34
2018-06-29T20:52:13.903Z,57.44
2018-06-29T20:54:46.784Z,57.41
2018-06-29T20:57:17.802Z,57.39
2018-06-29T20:59:49.265Z,57.64
2018-06-29T21:02:20.544Z,58.21
2018-06-29T21:04:54.575Z,58.33
2018-06-29T21:07:25.235Z,57.97
2018-06-29T21:10:03.836Z,58.58
2018-06-29T21:12:40.276Z,59.00
2018-06-29T21:15:12.709Z,58.58
2018-06-29T21:17:43.609Z,58.77
2018-06-29T21:20:18.055Z,59.28
2018-06-29T21:22:50.205Z,57.52
2018-06-29T21:25:22.003Z,59.10
2018-06-29T21:27:52.824Z,61.52
2018-06-29T21:30:23.984Z,63.26
2018-06-29T21:32:55.274Z,62.92
2018-06-29T21:35:25.952Z,62.70
2018-06-29T21:37:58.693Z,63.47
2018-06-29T21:40:30.734Z,63.76
2018-06-29T21:43:02.278Z,63.24
2018-06-29T21:45:35.467Z,63.45
2018-06-29T21:48:07.108Z,62.97
2018-06-29T21:50:38.489Z,62.38
2018-06-29T21:53:09.837Z,63.11
2018-06-29T21:55:41.029Z,63.12
2018-06-29T21:58:11.602Z,62.65
2018-06-29T22:00:45.890Z,64.00
2018-06-29T22:03:15.004Z,62.79
2018-06-29T22:05:44.184Z,62.62
2018-06-29T22:08:13.261Z,62.82
2018-06-29T22:10:42.075Z,62.66
2018-06-29T22:13:11.090Z,62.42
2018-06-29T22:15:39.906Z,62.90
2018-06-29T22:18:09.252Z,62.51
2018-06-29T22:20:37.963Z,63.41
2018-06-29T22:23:06.660Z,62.83
2018-06-29T22:25:35.961Z,62.88
2018-06-29T22:28:05.708Z,63.12
2018-06-29T22:30:35.838Z,63.14
2018-06-29T22:33:04.543Z,62.88
2018-06-29T22:35:34.384Z,63.58
2018-06-29T22:38:03.286Z,64.16
2018-06-29T22:40:32.063Z,63.35
2018-06-29T22:43:00.779Z,63.86
2018-06-29T22:45:29.467Z,63.08
2018-06-29T22:47:58.135Z,63.74
2018-06-29T22:50:26.845Z,63.79
2018-06-29T22:52:55.490Z,63.67
2018-06-29T22:55:24.196Z,63.91
2018-06-29T22:57:52.856Z,63.34
2018-06-29T23:00:21.622Z,63.64
2018-06-29T23:02:50.344Z,63.83
2018-06-29T23:05:19.259Z,63.45
2018-06-29T23:07:48.578Z,63.68
2018-06-29T23:10:17.955Z,63.86
2018-06-29T23:12:46.640Z,63.74
2018-06-29T23:15:15.316Z,64.26
2018-06-29T23:17:44.188Z,64.09
2018-06-29T23:20:13.129Z,63.75
2018-06-29T23:22:41.821Z,64.85
2018-06-29T23:25:10.468Z,64.56
2018-06-29T23:27:39.077Z,64.77
2018-06-29T23:30:07.924Z,64.95
2018-06-29T23:32:36.927Z,64.23
2018-06-29T23:35:05.848Z,63.95
2018-06-29T23:37:34.772Z,63.92
2018-06-29T23:40:03.550Z,64.42
2018-06-29T23:42:32.200Z,64.90
2018-06-29T23:45:01.213Z,65.29
2018-06-29T23:47:30.444Z,65.17
2018-06-29T23:49:59.512Z,65.78
2018-06-29T23:52:28.261Z,65.33
2018-06-29T23:54:57.505Z,65.18
2018-06-29T23:57:26.162Z,65.56
2018-06-29T23:59:55.101Z,65.28
